Terminal Aerodrome Forecast
Issued by NWS Upton, NY

Home | Current Version | Previous Version | Text Only | Print | Product List | Glossary On
Versions: 1 2 3 4 5 6 7 8 9 10 11 12 13 14 15 16 17 18 19 20 21 22 23 24 25 26 27 28 29 30 31 32 33 34 35 36 37 38 39 40 41
648
FTUS41 KOKX 202125 AAB
TAFISP
TAF AMD
KISP 202125Z 2021/2118 20011G17KT P6SM FEW060 SCT250
     FM210000 22008KT P6SM SCT060 SCT200
      TEMPO 2100/2103 27015G35KT 3SM -SHRA SCT025 BKN035
     FM210300 32005KT P6SM FEW060
     FM211600 29008KT P6SM FEW050=

USA.gov is the U.S. government's official web portal to all federal, state and local government web resources and services.